Time;durP1;ratioP1;P1;durP2;ratioP2;P2;SDS_P1;SDS_P2;PMS_P1;PMS_P2;Temp;Humidity;BMP_temperature;BMP_pressure;BME280_temperature;BME280_humidity;BME280_pressure;Samples;Min_cycle;Max_cycle;Signal;HPM_P1;HPM_P2
2024/02/28 00:01:02;;;;;;;;;;;;;;;22.02;26.40;98413.34;4963965;28;1165;-76
2024/02/28 00:03:27;;;;;;;;;;;;;;;21.90;26.32;98414.03;4994993;28;901;-75
2024/02/28 00:05:53;;;;;;;;;;;;;;;21.62;26.87;98409.78;4980036;28;879;-75
2024/02/28 00:08:20;;;;;;;;;;;;;;;21.55;26.78;98410.69;4996138;28;879;-76
2024/02/28 00:10:45;;;;;;;;;;;;;;;21.44;26.88;98413.72;4979877;28;1973;-76
2024/02/28 00:13:11;;;;;;;;;;;;;;;21.71;26.73;98404.31;4979648;28;1150;-75
2024/02/28 00:15:36;;;;;;;;;;;;;;;21.74;26.72;98407.06;4996221;28;948;-75
2024/02/28 00:18:03;;;;;;;;;;;;;;;21.76;26.35;98398.94;4996037;28;902;-76
2024/02/28 00:20:29;;;;;;;;;;;;;;;21.91;26.20;98402.25;4995975;28;985;-75
2024/02/28 00:22:55;;;;;;;;;;;;;;;21.35;26.97;98398.53;4986197;28;1042;-76
2024/02/28 00:25:20;;;;;;;;;;;;;;;21.14;27.38;98406.22;4963442;28;1161;-76
2024/02/28 00:27:46;;;;;;;;;;;;;;;21.83;26.47;98395.97;4976009;28;1230;-75
2024/02/28 00:30:11;;;;;;;;;;;;;;;21.99;26.17;98405.75;4960079;28;1065;-75
2024/02/28 00:32:37;;;;;;;;;;;;;;;21.99;26.39;98403.72;4943636;28;1918;-75
2024/02/28 00:35:03;;;;;;;;;;;;;;;22.02;26.14;98399.19;4976182;28;736;-75
2024/02/28 00:37:29;;;;;;;;;;;;;;;21.51;26.78;98402.28;4960122;28;803;-75
2024/02/28 00:39:55;;;;;;;;;;;;;;;21.41;26.82;98391.19;4959557;28;1047;-76
2024/02/28 00:42:20;;;;;;;;;;;;;;;21.67;26.92;98398.72;4944314;28;1224;-75
2024/02/28 00:44:46;;;;;;;;;;;;;;;21.77;26.55;98392.03;4937373;29;1312;-76
2024/02/28 00:47:11;;;;;;;;;;;;;;;21.93;26.32;98399.00;4921675;29;792;-76
2024/02/28 00:49:37;;;;;;;;;;;;;;;22.00;26.38;98398.84;4921127;29;892;-76
2024/02/28 00:52:02;;;;;;;;;;;;;;;21.81;26.62;98404.09;4921999;29;1907;-75
2024/02/28 00:54:28;;;;;;;;;;;;;;;21.43;26.81;98412.13;4935738;29;987;-75
2024/02/28 00:56:53;;;;;;;;;;;;;;;21.41;26.87;98411.78;4956493;29;1100;-75
2024/02/28 00:59:19;;;;;;;;;;;;;;;21.62;27.08;98407.72;4956153;29;974;-75
2024/02/28 01:01:44;;;;;;;;;;;;;;;21.88;26.43;98408.03;4956435;29;780;-75
2024/02/28 01:04:10;;;;;;;;;;;;;;;21.96;26.35;98400.94;4943215;28;926;-75
2024/02/28 01:06:35;;;;;;;;;;;;;;;22.13;26.27;98407.50;4962581;28;980;-75
2024/02/28 01:09:01;;;;;;;;;;;;;;;22.00;26.03;98410.16;4994638;28;791;-75
2024/02/28 01:11:26;;;;;;;;;;;;;;;21.70;26.58;98403.50;4995265;28;1974;-75
2024/02/28 01:13:52;;;;;;;;;;;;;;;21.60;26.69;98410.19;4978898;28;775;-76
2024/02/28 01:16:17;;;;;;;;;;;;;;;21.39;26.96;98407.78;5009072;28;754;-76
2024/02/28 01:18:43;;;;;;;;;;;;;;;21.92;26.28;98397.41;4997695;28;1021;-76
2024/02/28 01:21:08;;;;;;;;;;;;;;;21.81;26.58;98398.44;4998725;28;761;-75
2024/02/28 01:23:35;;;;;;;;;;;;;;;21.83;26.55;98407.28;5014088;28;825;-75
2024/02/28 01:26:03;;;;;;;;;;;;;;;21.79;26.46;98406.56;4998540;28;732;-76
2024/02/28 01:28:28;;;;;;;;;;;;;;;21.70;26.62;98408.38;5025087;28;883;-76
2024/02/28 01:30:54;;;;;;;;;;;;;;;21.39;26.88;98405.75;5036977;28;1890;-76
2024/02/28 01:33:19;;;;;;;;;;;;;;;21.32;27.35;98409.53;5018701;28;1269;-75
2024/02/28 01:35:45;;;;;;;;;;;;;;;21.81;26.53;98401.28;5019133;28;872;-76
2024/02/28 01:38:10;;;;;;;;;;;;;;;21.74;26.40;98392.09;5035126;28;807;-76
2024/02/28 01:40:36;;;;;;;;;;;;;;;21.82;26.68;98397.19;5035053;28;1084;-75
2024/02/28 01:43:07;;;;;;;;;;;;;;;21.93;26.45;98399.00;5036160;28;770;-75
2024/02/28 01:45:33;;;;;;;;;;;;;;;21.90;26.40;98405.53;5035028;28;715;-75
2024/02/28 01:47:59;;;;;;;;;;;;;;;21.84;26.46;98408.88;5018402;28;763;-76
2024/02/28 01:50:24;;;;;;;;;;;;;;;21.52;26.85;98408.75;5036609;28;715;-76
2024/02/28 01:52:50;;;;;;;;;;;;;;;21.67;26.58;98412.88;5035223;28;1910;-75
2024/02/28 01:55:15;;;;;;;;;;;;;;;21.82;26.37;98411.34;5018354;28;878;-75
2024/02/28 01:57:41;;;;;;;;;;;;;;;21.84;26.67;98417.38;5036397;28;834;-75
2024/02/28 02:00:08;;;;;;;;;;;;;;;22.08;26.24;98412.41;5034996;28;731;-75
2024/02/28 02:02:34;;;;;;;;;;;;;;;21.82;26.51;98411.34;5035263;28;776;-76
2024/02/28 02:04:59;;;;;;;;;;;;;;;21.74;26.65;98404.22;5018317;28;861;-75
2024/02/28 02:07:25;;;;;;;;;;;;;;;21.51;26.71;98407.94;5036404;28;755;-75
2024/02/28 02:09:52;;;;;;;;;;;;;;;21.70;26.87;98397.84;5018443;28;1091;-75
2024/02/28 02:12:17;;;;;;;;;;;;;;;21.62;26.65;98402.06;5035013;28;1909;-75
2024/02/28 02:14:47;;;;;;;;;;;;;;;21.70;26.96;98402.72;5001211;28;1147;-76
2024/02/28 02:17:12;;;;;;;;;;;;;;;21.87;26.68;98407.22;5034903;28;730;-76
2024/02/28 02:19:38;;;;;;;;;;;;;;;21.74;26.47;98415.56;4997413;28;850;-75
2024/02/28 02:22:03;;;;;;;;;;;;;;;21.59;26.77;98411.44;4981736;28;1374;-76
2024/02/28 02:24:29;;;;;;;;;;;;;;;21.58;26.83;98413.47;4981209;28;1092;-76
2024/02/28 02:26:55;;;;;;;;;;;;;;;21.35;27.20;98422.03;5016903;28;748;-75
2024/02/28 02:29:21;;;;;;;;;;;;;;;21.65;26.96;98418.16;4926725;29;1286;-75
2024/02/28 02:31:46;;;;;;;;;;;;;;;21.68;27.09;98417.31;4927555;29;1914;-75
2024/02/28 02:34:12;;;;;;;;;;;;;;;21.87;26.82;98427.06;4927180;29;860;-75
2024/02/28 02:36:38;;;;;;;;;;;;;;;21.79;26.84;98422.75;4943139;29;875;-76
2024/02/28 02:39:03;;;;;;;;;;;;;;;21.56;27.00;98432.13;4926396;29;1218;-75
2024/02/28 02:41:29;;;;;;;;;;;;;;;21.16;27.55;98431.22;4943201;29;851;-75
2024/02/28 02:43:54;;;;;;;;;;;;;;;21.43;27.24;98434.00;4958733;29;1224;-76
2024/02/28 02:46:20;;;;;;;;;;;;;;;21.74;26.84;98421.22;4959152;29;1098;-76
2024/02/28 02:48:45;;;;;;;;;;;;;;;21.98;26.49;98426.81;4942572;29;844;-76
2024/02/28 02:51:11;;;;;;;;;;;;;;;21.92;26.44;98435.03;4955664;28;1902;-75
2024/02/28 02:53:36;;;;;;;;;;;;;;;21.94;26.60;98434.59;4961352;28;1104;-76
2024/02/28 02:56:05;;;;;;;;;;;;;;;21.79;26.56;98429.22;4946181;28;1129;-75
2024/02/28 02:58:30;;;;;;;;;;;;;;;21.26;27.51;98436.69;4919923;29;1211;-75
2024/02/28 03:00:56;;;;;;;;;;;;;;;21.37;27.07;98435.72;4933330;29;894;-75
2024/02/28 03:03:22;;;;;;;;;;;;;;;21.69;27.08;98430.22;4958206;28;975;-75
2024/02/28 03:05:47;;;;;;;;;;;;;;;21.79;26.88;98423.56;4958590;28;794;-75
2024/02/28 03:08:12;;;;;;;;;;;;;;;22.00;26.45;98432.84;4958439;29;1141;-75
2024/02/28 03:10:39;;;;;;;;;;;;;;;22.09;26.28;98442.34;4958714;29;720;-76
2024/02/28 03:13:06;;;;;;;;;;;;;;;21.58;26.72;98438.16;4958235;29;1907;-75
2024/02/28 03:15:32;;;;;;;;;;;;;;;21.57;26.71;98447.88;4958496;28;748;-76
2024/02/28 03:17:57;;;;;;;;;;;;;;;21.51;27.22;98446.78;4957942;28;775;-75
2024/02/28 03:20:23;;;;;;;;;;;;;;;21.81;26.72;98448.59;4957812;28;934;-75
2024/02/28 03:22:49;;;;;;;;;;;;;;;21.94;26.51;98441.06;4957869;28;924;-75
2024/02/28 03:25:14;;;;;;;;;;;;;;;21.82;26.67;98444.56;4987716;28;783;-75
2024/02/28 03:27:40;;;;;;;;;;;;;;;21.87;26.72;98446.88;4964702;28;1236;-76
2024/02/28 03:30:06;;;;;;;;;;;;;;;21.78;26.85;98447.44;4957807;29;972;-76
2024/02/28 03:32:31;;;;;;;;;;;;;;;21.74;26.46;98449.56;4941879;29;1911;-75
2024/02/28 03:34:57;;;;;;;;;;;;;;;21.53;27.11;98462.09;4947360;28;792;-75
2024/02/28 03:37:22;;;;;;;;;;;;;;;22.00;26.52;98449.84;5000016;28;1085;-76
2024/02/28 03:39:48;;;;;;;;;;;;;;;21.83;26.81;98457.47;5015875;28;1199;-76
2024/02/28 03:42:13;;;;;;;;;;;;;;;21.99;26.35;98459.59;4983472;28;1235;-75
2024/02/28 03:44:39;;;;;;;;;;;;;;;22.04;26.28;98454.19;5015948;28;829;-76
2024/02/28 03:47:04;;;;;;;;;;;;;;;21.97;26.53;98453.56;5000032;28;1206;-75
2024/02/28 03:49:30;;;;;;;;;;;;;;;21.55;26.97;98461.66;4999427;28;814;-75
2024/02/28 03:51:55;;;;;;;;;;;;;;;21.44;27.15;98463.91;4999414;28;1977;-76
2024/02/28 03:54:21;;;;;;;;;;;;;;;21.56;27.16;98460.44;4983263;28;1363;-75
2024/02/28 03:56:46;;;;;;;;;;;;;;;21.66;27.21;98461.44;5016162;28;831;-75
2024/02/28 03:59:12;;;;;;;;;;;;;;;21.82;26.77;98459.50;4982982;28;971;-74
2024/02/28 04:01:37;;;;;;;;;;;;;;;21.96;26.62;98454.78;5025865;28;881;-76
2024/02/28 04:04:03;;;;;;;;;;;;;;;21.79;27.02;98451.09;5019652;28;1283;-75
2024/02/28 04:06:29;;;;;;;;;;;;;;;21.62;26.81;98458.72;5036702;28;683;-76
2024/02/28 04:08:54;;;;;;;;;;;;;;;21.33;27.31;98462.06;5036323;28;1124;-76
2024/02/28 04:11:20;;;;;;;;;;;;;;;21.71;27.11;98467.44;5003582;28;1903;-75
2024/02/28 04:13:46;;;;;;;;;;;;;;;21.95;26.60;98453.97;5036250;28;1135;-75
2024/02/28 04:16:12;;;;;;;;;;;;;;;21.96;26.56;98460.44;5037582;28;817;-76
2024/02/28 04:18:37;;;;;;;;;;;;;;;22.25;26.13;98460.69;5036172;28;699;-75
2024/02/28 04:21:03;;;;;;;;;;;;;;;21.79;26.82;98468.06;5037293;28;790;-75
2024/02/28 04:23:28;;;;;;;;;;;;;;;21.63;26.96;98471.63;5019441;28;1446;-75
2024/02/28 04:25:54;;;;;;;;;;;;;;;21.27;27.34;98471.47;5019936;28;1315;-75
2024/02/28 04:28:19;;;;;;;;;;;;;;;21.79;26.82;98468.88;5036595;28;874;-76
2024/02/28 04:30:45;;;;;;;;;;;;;;;21.80;26.98;98464.00;4998591;28;864;-75
2024/02/28 04:33:10;;;;;;;;;;;;;;;22.03;26.68;98458.28;5014877;28;1914;-75
2024/02/28 04:35:36;;;;;;;;;;;;;;;21.90;26.62;98456.53;4976439;28;925;-76
2024/02/28 04:38:01;;;;;;;;;;;;;;;21.67;26.81;98465.91;4975887;28;771;-76
2024/02/28 04:40:27;;;;;;;;;;;;;;;21.23;27.67;98463.03;4975882;28;1261;-75
2024/02/28 04:42:52;;;;;;;;;;;;;;;21.17;27.44;98470.41;4975737;28;934;-75
2024/02/28 04:45:18;;;;;;;;;;;;;;;21.79;27.03;98468.88;4960043;28;1189;-76
2024/02/28 04:47:43;;;;;;;;;;;;;;;21.84;26.93;98476.06;4975753;28;764;-75
2024/02/28 04:50:09;;;;;;;;;;;;;;;21.95;26.57;98470.19;4942813;28;908;-74
2024/02/28 04:52:35;;;;;;;;;;;;;;;22.14;26.34;98477.91;4959647;28;1914;-76
2024/02/28 04:55:00;;;;;;;;;;;;;;;21.99;26.57;98470.91;4975731;28;955;-75
2024/02/28 04:57:26;;;;;;;;;;;;;;;21.62;27.05;98487.03;4959926;28;969;-75
2024/02/28 04:59:52;;;;;;;;;;;;;;;21.52;27.01;98491.66;4959626;28;1098;-75
2024/02/28 05:02:17;;;;;;;;;;;;;;;21.49;27.01;98500.19;4962819;28;962;-75
2024/02/28 05:04:43;;;;;;;;;;;;;;;21.59;27.22;98502.03;4962816;28;1160;-75
2024/02/28 05:07:09;;;;;;;;;;;;;;;21.75;27.01;98496.47;5025580;28;1101;-76
2024/02/28 05:09:35;;;;;;;;;;;;;;;21.87;26.82;98497.88;5035270;28;904;-75
2024/02/28 05:12:01;;;;;;;;;;;;;;;21.51;27.20;98503.41;5019274;28;1887;-75
2024/02/28 05:14:26;;;;;;;;;;;;;;;21.53;27.09;98500.94;5036440;28;947;-75
2024/02/28 05:16:52;;;;;;;;;;;;;;;21.88;26.81;98510.81;5036826;28;1201;-76
2024/02/28 05:19:20;;;;;;;;;;;;;;;21.65;27.04;98502.34;5035166;28;936;-76
2024/02/28 05:21:46;;;;;;;;;;;;;;;21.85;26.84;98506.78;5036664;28;1131;-76
2024/02/28 05:24:11;;;;;;;;;;;;;;;22.06;26.32;98510.44;5035360;28;1068;-75
2024/02/28 05:26:37;;;;;;;;;;;;;;;21.73;26.97;98510.28;5035577;28;1005;-76
2024/02/28 05:29:03;;;;;;;;;;;;;;;21.31;27.34;98509.81;5035156;28;928;-75
2024/02/28 05:31:28;;;;;;;;;;;;;;;21.31;27.36;98512.66;5035570;28;1973;-75
2024/02/28 05:33:55;;;;;;;;;;;;;;;21.68;27.02;98512.81;5018651;28;941;-75
2024/02/28 05:36:21;;;;;;;;;;;;;;;21.92;26.81;98510.75;5027098;28;1238;-76
2024/02/28 05:38:47;;;;;;;;;;;;;;;22.03;26.35;98514.16;5015883;28;1077;-75
2024/02/28 05:41:13;;;;;;;;;;;;;;;22.06;26.27;98504.75;5015707;28;1213;-75
2024/02/28 05:43:40;;;;;;;;;;;;;;;21.87;26.66;98519.75;5016829;28;926;-76
2024/02/28 05:46:05;;;;;;;;;;;;;;;21.33;27.38;98518.66;5016247;28;916;-75
2024/02/28 05:48:31;;;;;;;;;;;;;;;21.25;27.28;98520.00;5014923;28;996;-75
2024/02/28 05:50:56;;;;;;;;;;;;;;;21.36;27.39;98521.88;5015963;28;1004;-74
2024/02/28 05:53:26;;;;;;;;;;;;;;;21.75;26.90;98524.78;5015154;28;1926;-75
2024/02/28 05:55:53;;;;;;;;;;;;;;;21.75;27.06;98530.44;5015666;28;933;-75
2024/02/28 05:58:19;;;;;;;;;;;;;;;21.92;26.59;98516.41;5015486;28;943;-75
2024/02/28 06:00:44;;;;;;;;;;;;;;;21.83;26.40;98520.59;5017934;28;857;-76
2024/02/28 06:03:10;;;;;;;;;;;;;;;21.76;26.56;98522.75;5020220;28;955;-76
2024/02/28 06:05:35;;;;;;;;;;;;;;;21.48;27.07;98526.91;5002573;28;881;-76
2024/02/28 06:08:01;;;;;;;;;;;;;;;21.55;27.11;98526.78;5002763;28;1128;-76
2024/02/28 06:10:27;;;;;;;;;;;;;;;21.73;26.79;98532.94;5019051;28;846;-76
2024/02/28 06:12:52;;;;;;;;;;;;;;;21.94;26.73;98536.59;5002478;28;1914;-77
2024/02/28 06:15:18;;;;;;;;;;;;;;;22.17;26.32;98538.59;4997997;28;952;-76
2024/02/28 06:17:44;;;;;;;;;;;;;;;21.99;26.41;98536.88;4959096;29;917;-76
2024/02/28 06:20:09;;;;;;;;;;;;;;;21.87;26.26;98533.91;4959229;29;736;-76
2024/02/28 06:22:35;;;;;;;;;;;;;;;21.54;26.85;98539.34;4895955;29;1115;-76
2024/02/28 06:25:00;;;;;;;;;;;;;;;21.27;27.14;98540.19;4959115;29;901;-76
2024/02/28 06:27:26;;;;;;;;;;;;;;;21.75;26.89;98541.78;4943299;29;927;-77
2024/02/28 06:29:52;;;;;;;;;;;;;;;21.89;26.44;98539.94;4943080;29;1007;-76
2024/02/28 06:32:17;;;;;;;;;;;;;;;22.03;26.56;98539.66;4958897;29;1969;-76
2024/02/28 06:34:43;;;;;;;;;;;;;;;21.75;26.80;98530.44;4943163;29;990;-76
2024/02/28 06:37:08;;;;;;;;;;;;;;;21.59;26.91;98536.00;4958940;29;1037;-76
2024/02/28 06:39:34;;;;;;;;;;;;;;;21.31;27.29;98540.97;4958940;29;1067;-76
2024/02/28 06:41:59;;;;;;;;;;;;;;;21.30;27.50;98545.03;4959338;29;1035;-77
2024/02/28 06:44:25;;;;;;;;;;;;;;;21.68;26.83;98543.97;4958906;29;985;-76
2024/02/28 06:46:50;;;;;;;;;;;;;;;21.92;26.41;98541.91;4973485;28;986;-76
2024/02/28 06:49:16;;;;;;;;;;;;;;;21.97;26.66;98550.69;4986210;28;1106;-76
2024/02/28 06:51:43;;;;;;;;;;;;;;;21.91;26.53;98548.78;5019699;28;1981;-76
2024/02/28 06:54:10;;;;;;;;;;;;;;;21.72;26.91;98548.34;5017932;28;1061;-76
2024/02/28 06:56:36;;;;;;;;;;;;;;;21.45;27.10;98556.09;5018513;28;991;-76
2024/02/28 06:59:01;;;;;;;;;;;;;;;21.65;27.02;98558.97;5001742;28;1502;-75
2024/02/28 07:01:27;;;;;;;;;;;;;;;21.81;26.69;98556.25;5001807;28;1084;-76
2024/02/28 07:03:52;;;;;;;;;;;;;;;21.73;26.94;98566.91;5019187;28;958;-75
2024/02/28 07:06:18;;;;;;;;;;;;;;;21.85;26.77;98569.13;5018207;28;1419;-76
2024/02/28 07:08:43;;;;;;;;;;;;;;;21.66;26.94;98567.06;5001443;28;791;-76
2024/02/28 07:11:15;;;;;;;;;;;;;;;21.53;27.17;98571.72;5034812;28;1910;-76
2024/02/28 07:13:41;;;;;;;;;;;;;;;21.43;27.35;98569.88;5021129;28;1272;-76
2024/02/28 07:16:06;;;;;;;;;;;;;;;21.80;26.90;98566.78;5037401;28;940;-77
2024/02/28 07:18:32;;;;;;;;;;;;;;;22.04;26.29;98564.72;5016510;28;1189;-76
2024/02/28 07:20:57;;;;;;;;;;;;;;;22.06;26.35;98562.22;4983977;28;1053;-76
2024/02/28 07:23:23;;;;;;;;;;;;;;;22.03;26.62;98570.81;4983910;28;1073;-76
2024/02/28 07:25:48;;;;;;;;;;;;;;;21.63;27.11;98562.25;4983643;28;995;-76
2024/02/28 07:28:14;;;;;;;;;;;;;;;21.30;27.62;98566.88;5000208;28;963;-76
2024/02/28 07:30:39;;;;;;;;;;;;;;;21.53;27.37;98572.53;5000270;28;1083;-76
2024/02/28 07:33:05;;;;;;;;;;;;;;;21.76;27.10;98571.72;5016205;28;1985;-77
2024/02/28 07:35:31;;;;;;;;;;;;;;;21.72;27.15;98573.81;5000042;28;771;-77
2024/02/28 07:37:56;;;;;;;;;;;;;;;21.90;26.99;98569.84;5016164;28;927;-75
2024/02/28 07:40:22;;;;;;;;;;;;;;;22.02;26.84;98566.38;5016378;28;1052;-76
2024/02/28 07:42:48;;;;;;;;;;;;;;;21.81;26.75;98574.06;5016205;28;735;-76
2024/02/28 07:45:14;;;;;;;;;;;;;;;21.53;27.20;98571.72;4983361;28;1172;-76
2024/02/28 07:47:40;;;;;;;;;;;;;;;21.21;27.86;98567.38;4983693;28;1201;-76
2024/02/28 07:50:06;;;;;;;;;;;;;;;21.36;27.95;98570.81;5026535;28;942;-75
2024/02/28 07:52:34;;;;;;;;;;;;;;;21.77;27.11;98570.50;5036744;28;1981;-76
2024/02/28 07:55:01;;;;;;;;;;;;;;;21.73;27.11;98575.41;5036859;28;938;-76
2024/02/28 07:57:26;;;;;;;;;;;;;;;21.77;26.99;98567.66;5038130;28;874;-76
2024/02/28 07:59:52;;;;;;;;;;;;;;;21.85;27.08;98569.13;5037748;28;906;-76
2024/02/28 08:02:19;;;;;;;;;;;;;;;21.74;26.86;98573.38;5036727;28;1075;-77
2024/02/28 08:04:45;;;;;;;;;;;;;;;21.48;27.24;98569.38;5037834;28;915;-76
2024/02/28 08:07:10;;;;;;;;;;;;;;;21.37;27.50;98571.59;5038099;28;807;-75
2024/02/28 08:09:36;;;;;;;;;;;;;;;21.89;26.88;98580.38;5037744;28;877;-76
2024/02/28 08:12:02;;;;;;;;;;;;;;;21.84;26.83;98578.84;5036609;28;1965;-75
2024/02/28 08:14:27;;;;;;;;;;;;;;;21.86;27.03;98575.56;5036253;28;937;-76
2024/02/28 08:16:53;;;;;;;;;;;;;;;21.91;26.89;98579.94;5036688;28;1014;-76
2024/02/28 08:19:18;;;;;;;;;;;;;;;21.61;27.28;98573.22;5036518;28;1026;-75
2024/02/28 08:21:44;;;;;;;;;;;;;;;21.46;27.48;98569.84;5020240;28;1253;-75
2024/02/28 08:24:09;;;;;;;;;;;;;;;21.73;27.12;98574.63;5035386;28;916;-76
2024/02/28 08:26:35;;;;;;;;;;;;;;;21.95;26.77;98572.19;5036358;28;1299;-75
2024/02/28 08:29:01;;;;;;;;;;;;;;;21.80;27.37;98578.09;5019637;28;1369;-76
2024/02/28 08:31:27;;;;;;;;;;;;;;;22.00;27.07;98572.47;5035939;28;1910;-75
2024/02/28 08:33:53;;;;;;;;;;;;;;;21.79;26.99;98582.19;5019690;28;991;-76
2024/02/28 08:36:18;;;;;;;;;;;;;;;21.74;26.98;98577.00;5003492;28;1274;-75
2024/02/28 08:38:44;;;;;;;;;;;;;;;21.45;27.40;98573.91;5019779;28;1259;-76
2024/02/28 08:41:10;;;;;;;;;;;;;;;21.48;27.57;98581.50;5003465;28;1104;-76
2024/02/28 08:43:39;;;;;;;;;;;;;;;21.69;27.45;98583.16;4998430;28;1613;-75
2024/02/28 08:46:04;;;;;;;;;;;;;;;21.99;27.21;98578.59;5015296;28;1172;-75
2024/02/28 08:48:30;;;;;;;;;;;;;;;22.00;26.96;98583.03;4998400;28;1051;-76
2024/02/28 08:50:55;;;;;;;;;;;;;;;21.94;27.08;98576.25;5015637;28;1067;-75
2024/02/28 08:53:21;;;;;;;;;;;;;;;21.73;27.18;98581.09;4975233;28;1922;-75
2024/02/28 08:55:46;;;;;;;;;;;;;;;21.49;27.57;98585.13;5015608;28;884;-76
2024/02/28 08:58:12;;;;;;;;;;;;;;;21.85;27.23;98574.78;5015242;28;965;-76
2024/02/28 09:00:37;;;;;;;;;;;;;;;22.10;27.01;98584.84;5015638;28;984;-75
2024/02/28 09:03:04;;;;;;;;;;;;;;;22.08;27.11;98588.13;4998490;28;1018;-75
2024/02/28 09:05:29;;;;;;;;;;;;;;;21.76;27.31;98583.06;4998692;28;1108;-75
2024/02/28 09:07:56;;;;;;;;;;;;;;;21.52;27.53;98595.63;4998330;28;980;-75
2024/02/28 09:10:24;;;;;;;;;;;;;;;21.01;28.41;98600.44;4998850;28;1005;-75
2024/02/28 09:12:50;;;;;;;;;;;;;;;21.52;28.12;98595.63;4982561;28;1922;-75
2024/02/28 09:15:15;;;;;;;;;;;;;;;21.54;27.78;98607.31;4998374;28;1105;-75
2024/02/28 09:17:41;;;;;;;;;;;;;;;21.79;27.38;98599.19;5014877;28;1046;-75
2024/02/28 09:20:07;;;;;;;;;;;;;;;21.94;27.16;98591.22;5014788;28;978;-75
2024/02/28 09:22:33;;;;;;;;;;;;;;;21.88;26.98;98597.81;4995029;28;982;-75
2024/02/28 09:24:58;;;;;;;;;;;;;;;21.54;27.59;98598.81;4995258;28;995;-75
2024/02/28 09:27:25;;;;;;;;;;;;;;;21.65;27.15;98593.75;4962627;28;1194;-76
2024/02/28 09:29:51;;;;;;;;;;;;;;;21.52;27.82;98590.75;4995213;28;1012;-75
2024/02/28 09:32:18;;;;;;;;;;;;;;;21.92;27.31;98590.06;4995534;28;1983;-75
2024/02/28 09:34:43;;;;;;;;;;;;;;;22.07;27.15;98592.19;4979764;28;1016;-75
2024/02/28 09:37:09;;;;;;;;;;;;;;;21.92;27.31;98598.56;4983114;28;911;-75
2024/02/28 09:39:37;;;;;;;;;;;;;;;21.85;27.41;98593.81;4979165;28;1096;-75
2024/02/28 09:42:02;;;;;;;;;;;;;;;21.53;27.68;98602.88;4963399;28;1415;-75
2024/02/28 09:44:28;;;;;;;;;;;;;;;21.28;27.90;98609.69;4963107;28;887;-76
2024/02/28 09:46:54;;;;;;;;;;;;;;;21.50;27.86;98603.72;4963391;28;1065;-75
2024/02/28 09:49:19;;;;;;;;;;;;;;;21.85;27.51;98594.59;4962783;28;925;-75
2024/02/28 09:51:45;;;;;;;;;;;;;;;21.88;27.49;98595.78;4963575;28;1906;-75
2024/02/28 09:54:10;;;;;;;;;;;;;;;21.78;27.47;98597.59;4977796;28;1100;-75
2024/02/28 09:56:36;;;;;;;;;;;;;;;21.73;27.29;98594.44;4966465;28;972;-76
2024/02/28 09:59:04;;;;;;;;;;;;;;;21.67;27.53;98593.34;4980905;28;1238;-75
2024/02/28 10:01:30;;;;;;;;;;;;;;;21.47;27.47;98594.06;5002509;28;1015;-76
2024/02/28 10:03:58;;;;;;;;;;;;;;;21.55;27.53;98591.91;5018283;28;935;-75
2024/02/28 10:06:23;;;;;;;;;;;;;;;21.83;27.57;98599.91;5018064;28;1081;-75
2024/02/28 10:08:49;;;;;;;;;;;;;;;21.91;27.22;98583.56;5001937;28;973;-75
2024/02/28 10:11:33;;;;;;;;;;;;;;;21.83;27.23;98582.91;5020101;28;1906;-75
2024/02/28 10:13:59;;;;;;;;;;;;;;;21.35;27.88;98585.38;5002484;28;1171;-75
2024/02/28 10:16:24;;;;;;;;;;;;;;;21.00;28.25;98593.97;5002958;28;1075;-75
2024/02/28 10:18:50;;;;;;;;;;;;;;;21.63;27.86;98584.09;5019976;28;989;-75
2024/02/28 10:21:15;;;;;;;;;;;;;;;22.00;27.15;98580.19;5002627;28;893;-75
2024/02/28 10:23:41;;;;;;;;;;;;;;;21.94;27.38;98587.59;5001341;28;993;-75
2024/02/28 10:26:08;;;;;;;;;;;;;;;21.98;27.06;98588.34;5018668;28;1075;-75
2024/02/28 10:28:36;;;;;;;;;;;;;;;21.56;27.61;98585.84;5018591;28;1100;-76
2024/02/28 10:31:01;;;;;;;;;;;;;;;21.37;27.81;98577.28;5020516;28;851;-75
2024/02/28 10:33:33;;;;;;;;;;;;;;;21.58;27.63;98571.25;5018186;28;1993;-76
2024/02/28 10:35:58;;;;;;;;;;;;;;;21.99;26.96;98572.91;5003791;28;956;-76
2024/02/28 10:38:24;;;;;;;;;;;;;;;21.99;27.13;98576.56;5019663;28;1044;-75
2024/02/28 10:40:49;;;;;;;;;;;;;;;21.97;27.19;98573.38;5018851;28;1052;-75
2024/02/28 10:43:15;;;;;;;;;;;;;;;22.02;26.97;98572.88;5018264;28;876;-76
2024/02/28 10:45:42;;;;;;;;;;;;;;;21.65;27.61;98571.09;5018761;28;1001;-75
2024/02/28 10:48:08;;;;;;;;;;;;;;;21.66;27.42;98569.88;5018147;28;943;-75
2024/02/28 10:50:33;;;;;;;;;;;;;;;21.53;27.40;98575.34;5019156;28;901;-75
2024/02/28 10:53:02;;;;;;;;;;;;;;;21.39;27.79;98564.28;5018141;28;1926;-75
2024/02/28 10:55:33;;;;;;;;;;;;;;;21.76;27.61;98565.25;5002134;28;1080;-76
2024/02/28 10:58:01;;;;;;;;;;;;;;;21.78;27.50;98563.59;5018004;28;907;-76
2024/02/28 11:00:27;;;;;;;;;;;;;;;21.94;27.23;98560.06;5002392;28;1285;-75
2024/02/28 11:02:52;;;;;;;;;;;;;;;21.95;27.12;98558.03;5018438;28;1017;-75
2024/02/28 11:05:18;;;;;;;;;;;;;;;21.37;28.06;98560.28;5017933;28;908;-75
2024/02/28 11:07:43;;;;;;;;;;;;;;;21.55;27.39;98549.44;5019346;28;944;-75
2024/02/28 11:10:10;;;;;;;;;;;;;;;21.33;28.01;98546.97;5019388;28;928;-76
2024/02/28 11:12:36;;;;;;;;;;;;;;;21.71;27.38;98555.22;5017939;28;1910;-75
2024/02/28 11:15:03;;;;;;;;;;;;;;;22.03;27.10;98548.94;5017735;28;944;-75
2024/02/28 11:17:29;;;;;;;;;;;;;;;21.94;27.24;98547.94;5017932;28;941;-75
2024/02/28 11:19:54;;;;;;;;;;;;;;;21.92;27.11;98544.75;5017795;28;940;-75
2024/02/28 11:22:23;;;;;;;;;;;;;;;21.91;27.25;98548.78;5002122;28;1467;-75
2024/02/28 11:24:49;;;;;;;;;;;;;;;21.39;27.92;98546.50;5017531;28;892;-76
2024/02/28 11:27:15;;;;;;;;;;;;;;;21.44;27.74;98537.50;4985149;28;1944;-75
2024/02/28 11:29:41;;;;;;;;;;;;;;;21.95;27.10;98538.97;5018128;28;927;-76
2024/02/28 11:32:06;;;;;;;;;;;;;;;22.10;26.86;98539.50;5017898;28;1910;-75
2024/02/28 11:34:33;;;;;;;;;;;;;;;22.10;27.06;98534.66;4996696;28;1021;-75
2024/02/28 11:36:59;;;;;;;;;;;;;;;22.11;26.87;98529.78;4980736;28;991;-75
2024/02/28 11:39:24;;;;;;;;;;;;;;;21.98;26.79;98535.28;4996232;28;1431;-74
2024/02/28 11:41:50;;;;;;;;;;;;;;;21.61;27.21;98536.41;4996810;28;976;-75
2024/02/28 11:44:18;;;;;;;;;;;;;;;21.65;27.18;98537.13;4985314;28;1092;-76
2024/02/28 11:46:50;;;;;;;;;;;;;;;21.76;27.34;98526.41;4995874;28;1247;-76
2024/02/28 11:49:15;;;;;;;;;;;;;;;21.89;27.38;98522.94;4995512;28;1353;-75
2024/02/28 11:51:42;;;;;;;;;;;;;;;21.82;27.37;98524.66;4996193;28;1989;-76
2024/02/28 11:54:08;;;;;;;;;;;;;;;21.96;27.07;98522.78;4979416;28;1239;-75
2024/02/28 11:56:34;;;;;;;;;;;;;;;21.89;26.91;98523.72;4996093;28;1279;-76
2024/02/28 11:58:59;;;;;;;;;;;;;;;21.79;27.12;98531.19;4996016;28;1254;-76
2024/02/28 12:01:32;;;;;;;;;;;;;;;21.33;27.56;98518.66;4979998;28;1074;-76
2024/02/28 12:03:58;;;;;;;;;;;;;;;21.94;27.32;98519.59;4995809;28;1287;-77
2024/02/28 12:06:24;;;;;;;;;;;;;;;22.08;26.87;98514.44;4962666;28;1227;-75
2024/02/28 12:08:50;;;;;;;;;;;;;;;22.06;27.06;98510.44;4957152;28;1029;-76
2024/02/28 12:11:15;;;;;;;;;;;;;;;22.18;26.61;98512.66;4943288;28;1984;-76
2024/02/28 12:13:41;;;;;;;;;;;;;;;21.63;27.70;98516.13;4973482;28;1373;-75
2024/02/28 12:16:07;;;;;;;;;;;;;;;21.64;27.59;98512.06;4960593;28;1224;-76
2024/02/28 12:18:34;;;;;;;;;;;;;;;21.36;27.68;98507.72;4965604;28;1475;-76
2024/02/28 12:20:59;;;;;;;;;;;;;;;21.62;27.88;98515.34;4979960;28;1675;-76
2024/02/28 12:23:25;;;;;;;;;;;;;;;21.72;27.34;98510.72;4984691;28;1626;-76
2024/02/28 12:25:51;;;;;;;;;;;;;;;22.06;27.07;98511.22;4973711;28;1623;-77
2024/02/28 12:28:16;;;;;;;;;;;;;;;22.10;26.96;98511.16;4970786;28;1281;-76
2024/02/28 12:30:42;;;;;;;;;;;;;;;21.77;27.31;98511.00;4964226;28;1168;-76
2024/02/28 12:33:08;;;;;;;;;;;;;;;21.80;27.09;98510.13;4965887;28;1962;-75
2024/02/28 12:35:34;;;;;;;;;;;;;;;21.37;27.84;98509.31;4967929;28;1227;-75
2024/02/28 12:37:59;;;;;;;;;;;;;;;21.63;27.65;98510.47;5007993;28;1399;-76
2024/02/28 12:40:25;;;;;;;;;;;;;;;21.85;27.08;98501.13;5009195;28;1258;-77
2024/02/28 12:42:50;;;;;;;;;;;;;;;22.05;26.94;98503.97;5025933;28;1246;-76
2024/02/28 12:45:16;;;;;;;;;;;;;;;21.78;27.49;98495.59;4997653;28;1286;-76
2024/02/28 12:47:42;;;;;;;;;;;;;;;21.73;27.06;98503.81;5014494;28;1309;-76
2024/02/28 12:50:08;;;;;;;;;;;;;;;21.47;27.70;98494.19;4998249;28;1255;-76
2024/02/28 12:52:33;;;;;;;;;;;;;;;21.65;27.16;98491.81;5014558;28;1914;-76
2024/02/28 12:54:59;;;;;;;;;;;;;;;22.12;26.80;98496.56;5014396;28;1330;-75